createdAt,value
2018-06-29T00:00:40.729Z,0
2018-06-29T00:01:46.176Z,0
2018-06-29T00:02:51.329Z,0
2018-06-29T00:03:56.506Z,0
2018-06-29T00:05:01.701Z,0
2018-06-29T00:06:06.026Z,0
2018-06-29T00:07:11.736Z,0
2018-06-29T00:08:16.928Z,0
2018-06-29T00:09:22.099Z,0
2018-06-29T00:10:27.508Z,0
2018-06-29T00:11:32.688Z,0
2018-06-29T00:12:38.672Z,0
2018-06-29T00:13:43.807Z,0
2018-06-29T00:14:49.090Z,0
2018-06-29T00:15:55.099Z,0
2018-06-29T00:17:00.543Z,0
2018-06-29T00:18:05.696Z,0
2018-06-29T00:19:11.114Z,0
2018-06-29T00:20:16.002Z,0
2018-06-29T00:21:20.898Z,0
2018-06-29T00:22:26.017Z,0
2018-06-29T00:23:31.167Z,0
2018-06-29T00:24:36.569Z,0
2018-06-29T00:25:41.731Z,0
2018-06-29T00:26:47.192Z,0
2018-06-29T00:27:52.877Z,0
2018-06-29T00:28:57.764Z,0
2018-06-29T00:30:02.935Z,0
2018-06-29T00:31:08.377Z,0
2018-06-29T00:32:13.542Z,0
2018-06-29T00:33:19.063Z,0
2018-06-29T00:34:24.484Z,0
2018-06-29T00:35:29.438Z,0
2018-06-29T00:36:35.020Z,0
2018-06-29T00:37:39.105Z,0
2018-06-29T00:38:44.265Z,0
2018-06-29T00:39:49.682Z,0
2018-06-29T00:40:55.088Z,0
2018-06-29T00:42:00.529Z,0
2018-06-29T00:43:06.375Z,0
2018-06-29T00:44:11.825Z,0
2018-06-29T00:45:17.006Z,0
2018-06-29T00:46:22.416Z,0
2018-06-29T00:47:27.179Z,0
2018-06-29T00:48:32.597Z,0
2018-06-29T00:49:37.503Z,0
2018-06-29T00:50:42.531Z,0
2018-06-29T00:51:47.838Z,0
2018-06-29T00:52:52.761Z,0
2018-06-29T00:53:57.370Z,0
2018-06-29T00:55:03.065Z,0
2018-06-29T00:56:07.668Z,0
2018-06-29T00:57:13.113Z,0
2018-06-29T00:58:18.856Z,0
2018-06-29T00:59:23.746Z,0
2018-06-29T01:00:29.354Z,0
2018-06-29T01:01:34.514Z,0
2018-06-29T01:02:39.968Z,0
2018-06-29T01:03:45.540Z,0
2018-06-29T01:04:51.008Z,0
2018-06-29T01:05:56.451Z,0
2018-06-29T01:07:01.592Z,0
2018-06-29T01:08:06.759Z,0
2018-06-29T01:09:12.349Z,0
2018-06-29T01:10:18.056Z,0
2018-06-29T01:11:22.957Z,0
2018-06-29T01:12:28.496Z,0
2018-06-29T01:13:33.106Z,0
2018-06-29T01:14:38.561Z,0
2018-06-29T01:15:44.439Z,0
2018-06-29T01:16:49.587Z,0
2018-06-29T01:17:54.749Z,0
2018-06-29T01:19:00.212Z,0
2018-06-29T01:20:05.653Z,0
2018-06-29T01:21:10.859Z,0
2018-06-29T01:22:16.508Z,0
2018-06-29T01:23:21.964Z,0
2018-06-29T01:24:27.918Z,0
2018-06-29T01:25:32.800Z,0
2018-06-29T01:26:37.970Z,0
2018-06-29T01:27:43.671Z,0
2018-06-29T01:28:48.542Z,0
2018-06-29T01:29:53.708Z,0
2018-06-29T01:30:59.417Z,0
2018-06-29T01:32:04.053Z,0
2018-06-29T01:33:08.660Z,0
2018-06-29T01:34:14.141Z,0
2018-06-29T01:35:19.318Z,0
2018-06-29T01:36:24.480Z,0
2018-06-29T01:37:30.164Z,0
2018-06-29T01:38:35.046Z,0
2018-06-29T01:39:40.341Z,0
2018-06-29T01:40:44.944Z,0
2018-06-29T01:41:50.394Z,0
2018-06-29T01:42:56.254Z,0
2018-06-29T01:44:01.420Z,0
2018-06-29T01:45:05.459Z,0
2018-06-29T01:46:11.164Z,0
2018-06-29T01:47:16.338Z,0
2018-06-29T01:48:21.775Z,0
2018-06-29T01:49:27.716Z,0
2018-06-29T01:50:32.898Z,0
2018-06-29T01:51:38.136Z,0
2018-06-29T01:52:43.655Z,0
2018-06-29T01:53:48.882Z,0
2018-06-29T01:54:54.615Z,0
2018-06-29T01:56:00.105Z,0
2018-06-29T01:57:05.011Z,0
2018-06-29T01:58:10.130Z,0
2018-06-29T01:59:15.219Z,0
2018-06-29T02:00:20.144Z,0
2018-06-29T02:01:25.594Z,0
2018-06-29T02:02:31.048Z,0
2018-06-29T02:03:36.737Z,0
2018-06-29T02:04:42.187Z,0
2018-06-29T02:05:47.637Z,0
2018-06-29T02:06:53.329Z,0
2018-06-29T02:07:58.922Z,0
2018-06-29T02:09:04.138Z,0
2018-06-29T02:10:08.996Z,0
2018-06-29T02:11:14.086Z,0
2018-06-29T02:12:18.952Z,0
2018-06-29T02:13:24.368Z,0
2018-06-29T02:14:29.242Z,0
2018-06-29T02:15:33.966Z,0
2018-06-29T02:16:39.406Z,0
2018-06-29T02:17:44.855Z,0
2018-06-29T02:18:50.717Z,0
2018-06-29T02:19:55.626Z,0
2018-06-29T02:21:00.519Z,0
2018-06-29T02:22:06.036Z,0
2018-06-29T02:23:10.925Z,0
2018-06-29T02:24:16.379Z,0
2018-06-29T02:25:22.066Z,0
2018-06-29T02:26:27.507Z,0
2018-06-29T02:27:33.321Z,0
2018-06-29T02:28:38.594Z,0
2018-06-29T02:29:43.757Z,0
2018-06-29T02:30:50.081Z,0
2018-06-29T02:31:56.084Z,0
2018-06-29T02:33:00.677Z,0
2018-06-29T02:34:06.390Z,0
2018-06-29T02:35:11.549Z,0
2018-06-29T02:36:16.716Z,0
2018-06-29T02:37:21.940Z,0
2018-06-29T02:38:27.108Z,0
2018-06-29T02:39:32.609Z,0
2018-06-29T02:40:37.794Z,0
2018-06-29T02:41:42.659Z,0
2018-06-29T02:42:48.096Z,0
2018-06-29T02:43:53.256Z,0
2018-06-29T02:44:58.698Z,0
2018-06-29T02:46:03.941Z,0
2018-06-29T02:47:09.109Z,0
2018-06-29T02:48:14.279Z,0
2018-06-29T02:49:20.017Z,0
2018-06-29T02:50:25.179Z,0
2018-06-29T02:51:30.273Z,0
2018-06-29T02:52:35.164Z,0
2018-06-29T02:53:40.620Z,0
2018-06-29T02:54:46.424Z,0
2018-06-29T02:55:51.862Z,0
2018-06-29T02:56:56.755Z,0
2018-06-29T02:58:02.336Z,0
2018-06-29T02:59:07.489Z,0
2018-06-29T03:00:12.957Z,0
2018-06-29T03:01:18.513Z,0
2018-06-29T03:02:23.963Z,0
2018-06-29T03:03:29.572Z,0
2018-06-29T03:04:35.034Z,0
2018-06-29T03:05:39.627Z,0
2018-06-29T03:06:44.896Z,0
2018-06-29T03:07:50.062Z,0
2018-06-29T03:08:55.506Z,0
2018-06-29T03:10:01.335Z,0
2018-06-29T03:11:06.803Z,0
2018-06-29T03:12:11.695Z,0
2018-06-29T03:13:16.920Z,0
2018-06-29T03:14:22.366Z,0
2018-06-29T03:15:28.437Z,0
2018-06-29T03:16:33.341Z,0
2018-06-29T03:17:37.952Z,0
2018-06-29T03:18:43.506Z,0
2018-06-29T03:19:48.957Z,0
2018-06-29T03:20:53.546Z,0
2018-06-29T03:21:59.242Z,0
2018-06-29T03:23:04.112Z,0
2018-06-29T03:24:09.274Z,0
2018-06-29T03:25:15.273Z,0
2018-06-29T03:26:21.094Z,0
2018-06-29T03:27:27.647Z,0
2018-06-29T03:28:33.092Z,0
2018-06-29T03:29:38.252Z,6
2018-06-29T03:30:43.846Z,6
2018-06-29T03:31:48.738Z,6
2018-06-29T03:32:53.931Z,6
2018-06-29T03:33:59.081Z,6
2018-06-29T03:35:04.376Z,24
2018-06-29T03:36:09.828Z,24
2018-06-29T03:37:15.520Z,24
2018-06-29T03:38:20.111Z,24
2018-06-29T03:40:45.437Z,24
2018-06-29T03:41:50.590Z,24
2018-06-29T03:42:56.292Z,24
2018-06-29T03:44:01.447Z,40
2018-06-29T03:45:06.328Z,40
2018-06-29T03:46:11.742Z,40
2018-06-29T03:47:16.916Z,40
2018-06-29T03:48:21.570Z,40
2018-06-29T03:49:26.830Z,40
2018-06-29T03:50:32.151Z,40
2018-06-29T03:51:37.375Z,40
2018-06-29T03:52:42.557Z,55
2018-06-29T03:53:48.021Z,55
2018-06-29T03:54:53.476Z,55
2018-06-29T03:55:58.378Z,55
2018-06-29T03:57:02.706Z,55
2018-06-29T03:58:08.144Z,55
2018-06-29T03:59:13.616Z,55
2018-06-29T04:00:18.775Z,71
2018-06-29T04:01:23.769Z,71
2018-06-29T04:02:28.633Z,48
2018-06-29T04:03:34.414Z,48
2018-06-29T04:04:39.586Z,48
2018-06-29T04:05:45.052Z,48
2018-06-29T04:06:50.753Z,48
2018-06-29T04:07:55.641Z,64
2018-06-29T04:09:00.811Z,64
2018-06-29T04:10:06.257Z,64
2018-06-29T04:11:11.424Z,64
2018-06-29T04:12:16.585Z,64
2018-06-29T04:13:22.388Z,64
2018-06-29T04:14:27.283Z,64
2018-06-29T04:15:33.203Z,64
2018-06-29T04:16:38.091Z,80
2018-06-29T04:17:43.243Z,80
2018-06-29T04:18:48.763Z,80
2018-06-29T04:19:53.928Z,80
2018-06-29T04:20:59.100Z,80
2018-06-29T04:22:04.605Z,80
2018-06-29T04:23:09.773Z,80
2018-06-29T04:24:14.940Z,80
2018-06-29T04:25:20.338Z,96
2018-06-29T04:26:25.562Z,96
2018-06-29T04:27:31.089Z,96
2018-06-29T04:28:35.969Z,96
2018-06-29T04:29:41.156Z,96
2018-06-29T04:30:46.599Z,96
2018-06-29T04:31:51.764Z,96
2018-06-29T04:32:56.921Z,96
2018-06-29T04:34:02.218Z,111
2018-06-29T04:35:07.674Z,111
2018-06-29T04:36:12.840Z,111
2018-06-29T04:37:18.280Z,88
2018-06-29T04:38:23.170Z,88
2018-06-29T04:39:28.827Z,88
2018-06-29T04:40:34.265Z,88
2018-06-29T04:41:39.129Z,88
2018-06-29T04:42:44.904Z,104
2018-06-29T04:43:50.120Z,104
2018-06-29T04:44:55.295Z,104
2018-06-29T04:46:00.999Z,104
2018-06-29T04:47:05.878Z,104
2018-06-29T04:48:11.037Z,104
2018-06-29T04:49:16.372Z,104
2018-06-29T04:50:21.852Z,121
2018-06-29T04:51:27.659Z,121
2018-06-29T04:52:33.136Z,121
2018-06-29T04:53:38.303Z,121
2018-06-29T04:54:43.739Z,121
2018-06-29T04:55:48.901Z,121
2018-06-29T04:56:54.113Z,121
2018-06-29T04:57:59.547Z,121
2018-06-29T04:59:04.425Z,136
2018-06-29T05:00:09.294Z,136
2018-06-29T05:01:15.140Z,136
2018-06-29T05:02:20.027Z,136
2018-06-29T05:03:24.626Z,136
2018-06-29T05:04:30.238Z,136
2018-06-29T05:05:35.417Z,136
2018-06-29T05:06:40.534Z,151
2018-06-29T05:07:45.429Z,151
2018-06-29T05:08:50.606Z,128
2018-06-29T05:09:56.449Z,128
2018-06-29T05:11:01.051Z,128
2018-06-29T05:12:05.937Z,128
2018-06-29T05:13:11.349Z,128
2018-06-29T05:14:16.785Z,128
2018-06-29T05:15:21.940Z,128
2018-06-29T05:16:42.464Z,128
2018-06-29T05:17:47.630Z,145
2018-06-29T05:18:53.042Z,145
2018-06-29T05:19:57.940Z,145
2018-06-29T05:21:02.526Z,145
2018-06-29T05:22:07.084Z,145
2018-06-29T05:23:11.992Z,145
2018-06-29T05:24:17.179Z,145
2018-06-29T05:25:22.879Z,145
2018-06-29T05:26:27.770Z,145
2018-06-29T05:27:33.149Z,161
2018-06-29T05:28:38.508Z,161
2018-06-29T05:29:44.298Z,161
2018-06-29T05:30:49.429Z,161
2018-06-29T05:31:54.876Z,161
2018-06-29T05:33:00.046Z,161
2018-06-29T05:34:05.175Z,176
2018-06-29T05:35:10.625Z,176
2018-06-29T05:36:14.947Z,176
2018-06-29T05:37:20.361Z,176
2018-06-29T05:38:25.232Z,176
2018-06-29T05:39:30.937Z,176
2018-06-29T05:40:36.094Z,176
2018-06-29T05:41:41.461Z,176
2018-06-29T05:42:48.014Z,176
2018-06-29T05:43:53.229Z,176
2018-06-29T05:44:58.393Z,176
2018-06-29T05:46:04.119Z,152
2018-06-29T05:47:09.286Z,169
2018-06-29T05:48:14.438Z,169
2018-06-29T05:49:20.357Z,169
2018-06-29T05:50:25.696Z,169
2018-06-29T05:51:31.282Z,169
2018-06-29T05:52:36.183Z,169
2018-06-29T05:53:41.063Z,169
2018-06-29T05:54:46.293Z,169
2018-06-29T05:55:51.189Z,169
2018-06-29T05:56:56.635Z,185
2018-06-29T05:58:02.108Z,185
2018-06-29T05:59:07.154Z,185
2018-06-29T06:00:12.052Z,185
2018-06-29T06:01:17.014Z,185
2018-06-29T06:02:22.503Z,185
2018-06-29T06:03:28.536Z,185
2018-06-29T06:04:33.779Z,185
2018-06-29T06:05:38.962Z,185
2018-06-29T06:06:44.105Z,185
2018-06-29T06:07:49.553Z,201
2018-06-29T06:08:55.005Z,201
2018-06-29T06:10:00.152Z,201
2018-06-29T06:11:05.486Z,201
2018-06-29T06:12:11.129Z,201
2018-06-29T06:13:16.405Z,201
2018-06-29T06:14:21.327Z,201
2018-06-29T06:15:26.956Z,201
2018-06-29T06:16:32.431Z,201
2018-06-29T06:17:37.874Z,201
2018-06-29T06:18:43.675Z,201
2018-06-29T06:19:48.570Z,192
2018-06-29T06:20:53.732Z,192
2018-06-29T06:21:59.483Z,192
2018-06-29T06:23:05.037Z,192
2018-06-29T06:24:10.203Z,192
2018-06-29T06:25:15.914Z,192
2018-06-29T06:26:21.351Z,192
2018-06-29T06:27:27.428Z,192
2018-06-29T06:28:32.598Z,209
2018-06-29T06:29:38.041Z,209
2018-06-29T06:30:43.834Z,209
2018-06-29T06:31:48.989Z,209
2018-06-29T06:32:54.434Z,209
2018-06-29T06:33:59.714Z,209
2018-06-29T06:35:03.755Z,209
2018-06-29T06:36:08.914Z,209
2018-06-29T06:37:14.044Z,209
2018-06-29T06:38:19.198Z,209
2018-06-29T06:39:24.126Z,209
2018-06-29T06:40:29.503Z,209
2018-06-29T06:41:34.730Z,209
2018-06-29T06:42:40.542Z,209
2018-06-29T06:43:45.724Z,225
2018-06-29T06:44:50.880Z,225
2018-06-29T06:45:56.306Z,225
2018-06-29T06:47:01.895Z,225
2018-06-29T06:48:06.619Z,225
2018-06-29T06:49:12.034Z,225
2018-06-29T06:50:17.202Z,225
2018-06-29T06:51:22.648Z,225
2018-06-29T06:52:28.397Z,209
2018-06-29T06:53:33.963Z,225
2018-06-29T06:54:38.380Z,225
2018-06-29T06:55:43.537Z,200
2018-06-29T06:56:48.686Z,200
2018-06-29T06:57:54.614Z,216
2018-06-29T06:59:00.052Z,216
2018-06-29T07:00:04.893Z,216
2018-06-29T07:01:09.734Z,216
2018-06-29T07:02:15.181Z,216
2018-06-29T07:03:20.385Z,233
2018-06-29T07:04:25.512Z,233
2018-06-29T07:05:30.424Z,233
2018-06-29T07:06:35.905Z,233
2018-06-29T07:07:41.340Z,233
2018-06-29T07:08:46.511Z,233
2018-06-29T07:09:52.233Z,233
2018-06-29T07:10:57.687Z,233
2018-06-29T07:12:02.026Z,233
2018-06-29T07:13:07.273Z,233
2018-06-29T07:14:12.378Z,233
2018-06-29T07:15:17.254Z,233
2018-06-29T07:16:22.518Z,233
2018-06-29T07:17:27.880Z,233
2018-06-29T07:18:33.670Z,233
2018-06-29T07:19:38.560Z,233
2018-06-29T07:20:43.447Z,233
2018-06-29T07:21:48.678Z,233
2018-06-29T07:22:53.863Z,233
2018-06-29T07:23:58.743Z,249
2018-06-29T07:25:03.922Z,249
2018-06-29T07:26:09.379Z,249
2018-06-29T07:27:14.738Z,249
2018-06-29T07:28:20.255Z,224
2018-06-29T07:29:25.419Z,224
2018-06-29T07:30:30.823Z,224
2018-06-29T07:31:35.985Z,224
2018-06-29T07:32:41.152Z,224
2018-06-29T07:33:46.883Z,224
2018-06-29T07:34:52.318Z,240
2018-06-29T07:35:57.507Z,240
2018-06-29T07:37:02.502Z,240
2018-06-29T07:38:07.395Z,240
2018-06-29T07:39:12.584Z,240
2018-06-29T07:40:17.712Z,240
2018-06-29T07:41:22.885Z,240
2018-06-29T07:42:28.299Z,240
2018-06-29T07:43:33.748Z,240
2018-06-29T07:44:38.622Z,240
2018-06-29T07:45:44.420Z,257
2018-06-29T07:46:49.589Z,257
2018-06-29T07:47:55.027Z,257
2018-06-29T07:49:00.184Z,257
2018-06-29T07:50:05.640Z,257
2018-06-29T07:51:10.997Z,257
2018-06-29T07:52:16.803Z,273
2018-06-29T07:53:21.671Z,247
2018-06-29T07:54:27.313Z,247
2018-06-29T07:55:32.492Z,247
2018-06-29T07:56:37.665Z,247
2018-06-29T07:57:42.846Z,247
2018-06-29T07:58:48.827Z,247
2018-06-29T07:59:54.706Z,264
2018-06-29T08:00:59.847Z,264
2018-06-29T08:02:05.073Z,264
2018-06-29T08:03:10.227Z,280
2018-06-29T08:04:15.090Z,280
2018-06-29T08:05:20.535Z,280
2018-06-29T08:06:26.227Z,280
2018-06-29T08:07:30.823Z,280
2018-06-29T08:08:35.996Z,280
2018-06-29T08:09:41.786Z,280
2018-06-29T08:10:46.986Z,280
2018-06-29T08:11:51.895Z,280
2018-06-29T08:12:57.407Z,280
2018-06-29T08:14:02.014Z,280
2018-06-29T08:15:06.915Z,280
2018-06-29T08:16:12.616Z,280
2018-06-29T08:17:18.063Z,271
2018-06-29T08:18:23.221Z,271
2018-06-29T08:19:28.768Z,271
2018-06-29T08:20:34.224Z,271
2018-06-29T08:21:39.458Z,271
2018-06-29T08:22:44.628Z,271
2018-06-29T08:23:50.066Z,271
2018-06-29T08:24:55.483Z,271
2018-06-29T08:26:00.346Z,288
2018-06-29T08:27:04.939Z,288
2018-06-29T08:28:09.806Z,288
2018-06-29T08:29:15.455Z,288
2018-06-29T08:30:20.634Z,288
2018-06-29T08:31:25.916Z,288
2018-06-29T08:32:31.086Z,288
2018-06-29T08:33:36.534Z,288
2018-06-29T08:34:41.691Z,288
2018-06-29T08:35:46.849Z,288
2018-06-29T08:36:52.281Z,304
2018-06-29T08:37:57.160Z,304
2018-06-29T08:39:02.364Z,304
2018-06-29T08:40:07.888Z,288
2018-06-29T08:41:13.249Z,304
2018-06-29T08:42:18.688Z,304
2018-06-29T08:43:24.382Z,304
2018-06-29T08:44:29.749Z,279
2018-06-29T08:45:34.977Z,295
2018-06-29T08:46:39.953Z,295
2018-06-29T08:47:45.532Z,295
2018-06-29T08:48:50.684Z,295
2018-06-29T08:49:55.835Z,295
2018-06-29T08:51:01.292Z,295
2018-06-29T08:52:06.330Z,295
2018-06-29T08:53:11.864Z,295
2018-06-29T08:54:17.637Z,295
2018-06-29T08:55:23.424Z,295
2018-06-29T08:56:28.302Z,295
2018-06-29T08:57:33.991Z,295
2018-06-29T08:58:39.446Z,295
2018-06-29T08:59:44.616Z,295
2018-06-29T09:00:50.032Z,312
2018-06-29T09:01:55.208Z,312
2018-06-29T09:03:00.423Z,312
2018-06-29T09:04:05.283Z,312
2018-06-29T09:05:10.170Z,312
2018-06-29T09:06:15.329Z,312
2018-06-29T09:07:21.137Z,312
2018-06-29T09:08:26.304Z,312
2018-06-29T09:09:32.300Z,328
2018-06-29T09:10:37.744Z,312
2018-06-29T09:11:43.206Z,328
2018-06-29T09:12:48.825Z,328
2018-06-29T09:13:54.007Z,312
2018-06-29T09:14:59.166Z,328
2018-06-29T09:16:04.865Z,328
2018-06-29T09:17:10.037Z,328
2018-06-29T09:18:15.506Z,328
2018-06-29T09:19:21.202Z,328
2018-06-29T09:20:26.079Z,328
2018-06-29T09:21:31.104Z,328
2018-06-29T09:22:36.552Z,328
2018-06-29T09:23:41.995Z,328
2018-06-29T09:24:47.495Z,328
2018-06-29T09:25:52.671Z,303
2018-06-29T09:26:57.865Z,328
2018-06-29T09:28:03.965Z,328
2018-06-29T09:29:08.578Z,328
2018-06-29T09:30:13.787Z,303
2018-06-29T09:31:18.647Z,303
2018-06-29T09:32:24.263Z,303
2018-06-29T09:33:29.658Z,303
2018-06-29T09:34:34.549Z,303
2018-06-29T09:35:39.993Z,303
2018-06-29T09:36:45.447Z,303
2018-06-29T09:37:50.320Z,303
2018-06-29T09:38:56.322Z,303
2018-06-29T09:40:01.515Z,303
2018-06-29T09:41:06.418Z,319
2018-06-29T09:42:11.587Z,303
2018-06-29T09:43:17.277Z,319
2018-06-29T09:44:22.740Z,319
2018-06-29T09:45:28.021Z,319
2018-06-29T09:46:33.167Z,303
2018-06-29T09:47:38.341Z,319
2018-06-29T09:48:44.110Z,319
2018-06-29T09:49:49.554Z,319
2018-06-29T09:50:55.194Z,319
2018-06-29T09:52:00.915Z,319
2018-06-29T09:53:05.524Z,303
2018-06-29T09:54:10.971Z,303
2018-06-29T09:55:16.141Z,319
2018-06-29T09:56:21.579Z,328
2018-06-29T09:57:26.920Z,303
2018-06-29T09:58:32.088Z,303
2018-06-29T09:59:37.557Z,319
2018-06-29T10:00:43.545Z,319
2018-06-29T10:01:48.539Z,319
2018-06-29T10:02:53.979Z,319
2018-06-29T10:03:59.204Z,319
2018-06-29T10:05:04.826Z,319
2018-06-29T10:06:09.142Z,319
2018-06-29T10:07:14.832Z,319
2018-06-29T10:08:20.276Z,319
2018-06-29T10:09:26.346Z,319
2018-06-29T10:10:31.253Z,319
2018-06-29T10:11:36.153Z,319
2018-06-29T10:12:41.657Z,319
2018-06-29T10:13:47.124Z,319
2018-06-29T10:14:51.984Z,319
2018-06-29T10:15:57.745Z,319
2018-06-29T10:17:03.209Z,335
2018-06-29T10:18:07.799Z,319
2018-06-29T10:19:13.222Z,319
2018-06-29T10:20:18.132Z,319
2018-06-29T10:21:23.524Z,319
2018-06-29T10:22:29.194Z,335
2018-06-29T10:23:35.058Z,335
2018-06-29T10:24:40.500Z,335
2018-06-29T10:25:45.669Z,319
2018-06-29T10:26:51.202Z,319
2018-06-29T10:27:56.695Z,319
2018-06-29T10:29:01.319Z,319
2018-06-29T10:30:05.925Z,319
2018-06-29T10:31:11.056Z,319
2018-06-29T10:32:16.423Z,319
2018-06-29T10:33:21.875Z,319
2018-06-29T10:34:27.098Z,319
2018-06-29T10:35:32.472Z,319
2018-06-29T10:36:37.644Z,319
2018-06-29T10:37:42.336Z,303
2018-06-29T10:38:47.910Z,319
2018-06-29T10:39:52.787Z,319
2018-06-29T10:40:57.948Z,319
2018-06-29T10:42:02.840Z,319
2018-06-29T10:43:07.699Z,319
2018-06-29T10:44:13.141Z,319
2018-06-29T10:45:18.597Z,319
2018-06-29T10:46:23.458Z,319
2018-06-29T10:47:28.892Z,319
2018-06-29T10:48:34.866Z,319
2018-06-29T10:49:40.020Z,319
2018-06-29T10:50:44.647Z,319
2018-06-29T10:51:50.042Z,319
2018-06-29T10:52:55.567Z,319
2018-06-29T10:54:00.791Z,319
2018-06-29T10:55:06.211Z,319
2018-06-29T10:56:11.379Z,319
2018-06-29T10:57:16.537Z,319
2018-06-29T10:58:22.232Z,303
2018-06-29T10:59:26.827Z,303
2018-06-29T11:00:32.400Z,303
2018-06-29T11:01:37.560Z,303
2018-06-29T11:02:42.452Z,303
2018-06-29T11:03:47.882Z,303
2018-06-29T11:04:53.036Z,303
2018-06-29T11:05:58.485Z,303
2018-06-29T11:07:03.948Z,303
2018-06-29T11:08:09.405Z,303
2018-06-29T11:09:14.850Z,303
2018-06-29T11:10:20.699Z,303
2018-06-29T11:11:25.584Z,303
2018-06-29T11:12:30.748Z,303
2018-06-29T11:13:35.365Z,303
2018-06-29T11:14:41.012Z,303
2018-06-29T11:15:46.138Z,303
2018-06-29T11:16:51.300Z,303
2018-06-29T11:17:56.483Z,328
2018-06-29T11:19:02.195Z,303
2018-06-29T11:20:07.790Z,303
2018-06-29T11:21:12.939Z,328
2018-06-29T11:22:18.423Z,328
2018-06-29T11:23:23.889Z,328
2018-06-29T11:24:29.753Z,328
2018-06-29T11:25:34.914Z,328
2018-06-29T11:26:39.794Z,328
2018-06-29T11:27:44.972Z,312
2018-06-29T11:28:50.426Z,312
2018-06-29T11:29:55.591Z,312
2018-06-29T11:31:00.747Z,312
2018-06-29T11:32:05.612Z,312
2018-06-29T11:33:10.933Z,312
2018-06-29T11:34:16.505Z,295
2018-06-29T11:35:21.300Z,295
2018-06-29T11:36:41.775Z,295
2018-06-29T11:37:46.685Z,295
2018-06-29T11:38:52.093Z,295
2018-06-29T11:39:57.648Z,295
2018-06-29T11:41:02.561Z,295
2018-06-29T11:42:07.443Z,295
2018-06-29T11:43:12.286Z,295
2018-06-29T11:44:18.224Z,295
2018-06-29T11:45:24.116Z,295
2018-06-29T11:46:29.884Z,295
2018-06-29T11:47:35.318Z,295
2018-06-29T11:48:40.893Z,295
2018-06-29T11:49:46.230Z,295
2018-06-29T11:50:51.134Z,304
2018-06-29T11:51:56.922Z,304
2018-06-29T11:53:02.089Z,304
2018-06-29T11:54:07.244Z,304
2018-06-29T11:55:12.761Z,304
2018-06-29T11:56:17.933Z,304
2018-06-29T11:57:23.372Z,304
2018-06-29T11:58:29.238Z,288
2018-06-29T11:59:34.133Z,288
2018-06-29T12:00:39.538Z,288
2018-06-29T12:01:45.292Z,288
2018-06-29T12:02:49.934Z,288
2018-06-29T12:03:55.345Z,288
2018-06-29T12:05:00.241Z,288
2018-06-29T12:06:05.133Z,288
2018-06-29T12:07:10.458Z,271
2018-06-29T12:08:15.503Z,271
2018-06-29T12:09:20.690Z,271
2018-06-29T12:10:25.539Z,271
2018-06-29T12:11:29.584Z,271
2018-06-29T12:12:35.024Z,271
2018-06-29T12:13:40.486Z,255
2018-06-29T12:14:45.779Z,280
2018-06-29T12:15:51.289Z,264
2018-06-29T12:16:56.451Z,264
2018-06-29T12:18:01.607Z,247
2018-06-29T12:19:06.793Z,264
2018-06-29T12:20:12.239Z,280
2018-06-29T12:21:17.685Z,280
2018-06-29T12:22:22.569Z,280
2018-06-29T12:23:28.197Z,280
2018-06-29T12:24:33.055Z,264
2018-06-29T12:25:38.449Z,264
2018-06-29T12:26:43.318Z,264
2018-06-29T12:27:48.300Z,247
2018-06-29T12:28:53.833Z,264
2018-06-29T12:29:58.735Z,264
2018-06-29T12:31:04.014Z,264
2018-06-29T12:32:09.189Z,264
2018-06-29T12:33:13.786Z,264
2018-06-29T12:34:18.670Z,247
2018-06-29T12:35:23.845Z,247
2018-06-29T12:36:28.997Z,247
2018-06-29T12:37:34.461Z,247
2018-06-29T12:38:39.622Z,247
2018-06-29T12:39:44.807Z,247
2018-06-29T12:40:49.888Z,247
2018-06-29T12:41:55.052Z,247
2018-06-29T12:42:59.628Z,247
2018-06-29T12:44:05.074Z,247
2018-06-29T12:45:09.964Z,247
2018-06-29T12:46:15.130Z,247
2018-06-29T12:47:20.346Z,247
2018-06-29T12:48:26.700Z,247
2018-06-29T12:49:31.861Z,257
2018-06-29T12:50:37.316Z,257
2018-06-29T12:51:43.214Z,257
2018-06-29T12:52:48.097Z,257
2018-06-29T12:53:52.979Z,257
2018-06-29T12:54:58.398Z,257
2018-06-29T12:56:03.285Z,257
2018-06-29T12:57:07.597Z,257
2018-06-29T12:58:13.024Z,257
2018-06-29T12:59:17.907Z,257
2018-06-29T13:00:22.500Z,257
2018-06-29T13:01:27.981Z,257
2018-06-29T13:02:32.879Z,257
2018-06-29T13:03:37.726Z,257
2018-06-29T13:04:43.023Z,257
2018-06-29T13:05:48.511Z,257
2018-06-29T13:06:54.228Z,257
2018-06-29T13:07:59.416Z,257
2018-06-29T13:09:04.584Z,257
2018-06-29T13:10:09.996Z,257
2018-06-29T13:11:15.402Z,257
2018-06-29T13:12:20.283Z,273
2018-06-29T13:13:26.062Z,273
2018-06-29T13:14:31.229Z,273
2018-06-29T13:15:36.653Z,273
2018-06-29T13:16:41.243Z,247
2018-06-29T13:17:46.689Z,247
2018-06-29T13:18:51.881Z,264
2018-06-29T13:19:57.058Z,264
2018-06-29T13:21:02.238Z,264
2018-06-29T13:22:07.763Z,264
2018-06-29T13:23:13.206Z,264
2018-06-29T13:24:18.689Z,264
2018-06-29T13:25:24.489Z,280
2018-06-29T13:26:29.407Z,264
2018-06-29T13:27:35.198Z,280
2018-06-29T13:28:40.367Z,280
2018-06-29T13:29:45.540Z,297
2018-06-29T13:30:51.316Z,297
2018-06-29T13:31:57.044Z,297
2018-06-29T13:33:01.657Z,297
2018-06-29T13:34:06.564Z,288
2018-06-29T13:35:11.725Z,288
2018-06-29T13:36:16.905Z,288
2018-06-29T13:37:22.532Z,288
2018-06-29T13:38:27.693Z,288
2018-06-29T13:39:33.395Z,288
2018-06-29T13:40:38.282Z,304
2018-06-29T13:41:43.454Z,304
2018-06-29T13:42:48.577Z,304
2018-06-29T13:43:53.980Z,304
2018-06-29T13:44:59.641Z,304
2018-06-29T13:46:04.784Z,304
2018-06-29T13:47:10.246Z,304
2018-06-29T13:48:15.438Z,321
2018-06-29T13:49:20.907Z,321
2018-06-29T13:50:26.063Z,321
2018-06-29T13:51:31.914Z,321
2018-06-29T13:52:36.797Z,321
2018-06-29T13:53:42.266Z,321
2018-06-29T13:54:47.038Z,321
2018-06-29T13:55:52.736Z,321
2018-06-29T13:56:57.905Z,321
2018-06-29T13:58:02.761Z,321
2018-06-29T13:59:08.401Z,321
2018-06-29T14:00:13.565Z,321
2018-06-29T14:01:18.985Z,321
2018-06-29T14:02:24.534Z,321
2018-06-29T14:03:30.284Z,321
2018-06-29T14:04:35.169Z,321
2018-06-29T14:05:40.613Z,304
2018-06-29T14:06:46.008Z,304
2018-06-29T14:07:50.900Z,304
2018-06-29T14:08:55.837Z,321
2018-06-29T14:10:00.706Z,321
2018-06-29T14:11:05.304Z,321
2018-06-29T14:12:09.882Z,321
2018-06-29T14:13:15.418Z,321
2018-06-29T14:14:20.324Z,304
2018-06-29T14:15:40.778Z,321
2018-06-29T14:16:45.949Z,321
2018-06-29T14:17:51.122Z,321
2018-06-29T14:18:56.726Z,321
2018-06-29T14:20:02.196Z,321
2018-06-29T14:21:07.386Z,321
2018-06-29T14:22:12.573Z,337
2018-06-29T14:23:17.168Z,321
2018-06-29T14:24:22.341Z,321
2018-06-29T14:25:28.113Z,321
2018-06-29T14:26:33.303Z,337
2018-06-29T14:27:38.257Z,337
2018-06-29T14:28:43.716Z,337
2018-06-29T14:29:48.869Z,337
2018-06-29T14:30:54.566Z,337
2018-06-29T14:31:59.745Z,337
2018-06-29T14:33:04.908Z,321
2018-06-29T14:34:10.361Z,321
2018-06-29T14:35:15.813Z,321
2018-06-29T14:36:21.280Z,321
2018-06-29T14:37:26.130Z,321
2018-06-29T14:38:31.312Z,321
2018-06-29T14:39:36.733Z,321
2018-06-29T14:40:42.198Z,321
2018-06-29T14:41:47.357Z,321
2018-06-29T14:42:52.787Z,321
2018-06-29T14:43:57.943Z,321
2018-06-29T14:45:02.833Z,321
2018-06-29T14:46:07.998Z,321
2018-06-29T14:47:13.160Z,321
2018-06-29T14:48:18.610Z,321
2018-06-29T14:49:24.011Z,321
2018-06-29T14:50:29.204Z,321
2018-06-29T14:51:34.634Z,321
2018-06-29T14:52:39.534Z,321
2018-06-29T14:53:44.403Z,321
2018-06-29T14:54:50.110Z,321
2018-06-29T14:55:55.562Z,321
2018-06-29T14:57:00.655Z,321
2018-06-29T14:58:05.783Z,321
2018-06-29T14:59:11.231Z,321
2018-06-29T15:00:15.849Z,321
2018-06-29T15:01:21.127Z,321
2018-06-29T15:02:26.603Z,321
2018-06-29T15:03:32.308Z,321
2018-06-29T15:04:37.764Z,337
2018-06-29T15:05:42.924Z,337
2018-06-29T15:06:48.349Z,337
2018-06-29T15:07:53.508Z,328
2018-06-29T15:08:58.666Z,328
2018-06-29T15:10:03.793Z,328
2018-06-29T15:11:08.387Z,328
2018-06-29T15:12:13.833Z,328
2018-06-29T15:13:19.642Z,328
2018-06-29T15:14:24.837Z,328
2018-06-29T15:15:30.391Z,344
2018-06-29T15:16:35.563Z,344
2018-06-29T15:17:41.037Z,361